CYWG/YWG METAR and TAF weather

Enter ICAO airport designator
Station Type Date Time Source
CYWG METAR 2021/08/02 02:00 UTC NOAA

CYWG 020200Z 33004KT 8SM FEW080 FEW250 22/09 A3011 RMK AC1CI1 AC TR CI TR FU SLP201 DENSITY ALT 1600FT


Station Type Date Time Source
CYWG Decoded METAR 2021/08/02 02:00 UTC NOAA

Winnipeg Int. Airportman., Canada (CYWG) 49-54N 097-14W 239M
Aug 01, 2021 - 10:00 PM EDT / 2021.08.02 0200 UTC
Wind: from the NNW (330 degrees) at 5 MPH (4 KT):0
Visibility: 8 mile(s):0
Sky conditions: mostly clear
Temperature: 71 F (22 C)
Dew Point: 48 F (9 C)
Relative Humidity: 43%
Pressure (altimeter): 30.11 in. Hg (1019 hPa)
ob: CYWG 020200Z 33004KT 8SM FEW080 FEW250 22/09 A3011 RMK AC1CI1 AC TR CI TR FU SLP201 DENSITY ALT 1600FT
cycle: 2

Station Type Date Time Source
CYWG TAF 2021/08/01 18:40 UTC NOAA

TAF CYWG 011738Z 0118/0218 32008KT P6SM FEW070
TEMPO 0118/0124 4SM FU VV030
FM020000 32010KT P6SM SKC
TEMPO 0200/0208 5SM FU
BECMG 0201/0203 VRB03KT
FM020800 20006KT P6SM SKC
TEMPO 0208/0218 5SM FU
RMK NXT FCST BY 020000Z

Example: see airport list